Terminal Aerodrome Forecast
Issued by NWS

Home | Current Version | Previous Version | Text Only | Print | Product List | Glossary On
Versions: 1 2 3 4 5 6 7 8 9 10 11 12 13 14
000
FTUS44 KEPZ 230200 AAA
TAFLRU
TAF AMD
KLRU 230241Z 2303/2324 11006KT P6SM FEW080 BKN120 OVC180
      TEMPO 2303/2306 VRB15G25KT 6SM SHRA BKN080
     FM230600 11008KT P6SM SCT080 BKN150
     FM231200 07005KT P6SM SCT150 SCT250
     FM231800 12010KT P6SM FEW080 SCT150=

USA.gov is the U.S. government's official web portal to all federal, state and local government web resources and services.